createdAt,value
2022-12-26T00:05:08.775Z,97252.31
2022-12-26T00:07:35.293Z,97256.56
2022-12-26T00:10:02.069Z,97259.97
2022-12-26T00:12:30.830Z,97257.63
2022-12-26T00:14:58.200Z,97265.38
2022-12-26T00:17:25.996Z,97256.84
2022-12-26T00:19:52.749Z,97262.78
2022-12-26T00:22:19.292Z,97264.69
2022-12-26T00:24:47.130Z,97267.28
2022-12-26T00:27:13.822Z,97263.06
2022-12-26T00:29:44.475Z,97268.16
2022-12-26T00:32:10.983Z,97268.16
2022-12-26T00:34:38.360Z,97275.94
2022-12-26T00:37:05.019Z,97272.50
2022-12-26T00:39:34.390Z,97263.13
2022-12-26T00:42:00.896Z,97275.28
2022-12-26T00:44:27.582Z,97267.34
2022-12-26T00:46:54.263Z,97273.44
2022-12-26T00:49:20.949Z,97270.75
2022-12-26T00:51:47.483Z,97264.63
2022-12-26T00:54:14.268Z,97275.78
2022-12-26T00:56:40.734Z,97275.94
2022-12-26T00:59:07.225Z,97281.88
2022-12-26T01:01:39.089Z,97280.03
2022-12-26T01:04:06.002Z,97290.34
2022-12-26T01:06:32.627Z,97291.13
2022-12-26T01:08:59.787Z,97291.81
2022-12-26T01:11:41.363Z,97295.16
2022-12-26T01:14:19.076Z,97300.13
2022-12-26T01:16:48.874Z,97301.16
2022-12-26T01:19:22.860Z,97302.78
2022-12-26T01:21:58.179Z,97300.22
2022-12-26T01:24:25.066Z,97311.53
2022-12-26T01:26:53.429Z,97307.88
2022-12-26T01:29:20.413Z,97306.81
2022-12-26T01:31:47.372Z,97306.56
2022-12-26T01:34:14.008Z,97298.63
2022-12-26T01:36:42.062Z,97301.19
2022-12-26T01:39:09.017Z,97300.28
2022-12-26T01:41:37.436Z,97301.97
2022-12-26T01:44:09.062Z,97300.19
2022-12-26T01:47:04.817Z,97307.50
2022-12-26T01:49:39.916Z,97300.19
2022-12-26T01:52:13.794Z,97302.91
2022-12-26T01:54:43.438Z,97307.53
2022-12-26T01:57:17.338Z,97317.19
2022-12-26T01:59:46.350Z,97308.88
2022-12-26T02:02:13.779Z,97309.91
2022-12-26T02:05:04.755Z,97305.59
2022-12-26T02:07:34.061Z,97315.38
2022-12-26T02:10:00.767Z,97308.56
2022-12-26T02:18:40.886Z,97308.41
2022-12-26T02:22:03.455Z,97316.41
2022-12-26T02:24:56.923Z,97310.31
2022-12-26T02:28:50.677Z,97310.41
2022-12-26T02:31:20.409Z,97319.09
2022-12-26T02:34:00.241Z,97314.66
2022-12-26T02:36:56.946Z,97318.97
2022-12-26T02:39:55.786Z,97313.00
2022-12-26T02:42:49.635Z,97312.94
2022-12-26T02:45:51.172Z,97313.88
2022-12-26T02:48:29.702Z,97307.75
2022-12-26T02:51:33.005Z,97306.16
2022-12-26T02:54:37.492Z,97306.38
2022-12-26T02:57:26.765Z,97307.38
2022-12-26T03:00:47.989Z,97301.31
2022-12-26T03:03:54.008Z,97293.78
2022-12-26T03:07:16.697Z,97298.06
2022-12-26T03:10:05.030Z,97287.94
2022-12-26T03:13:32.098Z,97289.63
2022-12-26T03:16:47.235Z,97293.13
2022-12-26T03:19:19.745Z,97301.06
2022-12-26T03:21:47.950Z,97300.13
2022-12-26T03:24:20.241Z,97303.53
2022-12-26T03:26:53.918Z,97290.75
2022-12-26T03:29:45.551Z,97289.88
2022-12-26T03:32:13.112Z,97289.06
2022-12-26T03:34:54.654Z,97291.66
2022-12-26T03:37:50.406Z,97292.41
2022-12-26T03:40:55.516Z,97287.28
2022-12-26T03:43:47.850Z,97280.41
2022-12-26T03:46:51.504Z,97290.75
2022-12-26T03:49:43.595Z,97280.38
2022-12-26T03:52:48.265Z,97295.75
2022-12-26T03:56:09.279Z,97295.13
2022-12-26T03:59:03.630Z,97291.75
2022-12-26T04:01:51.757Z,97287.44
2022-12-26T04:04:41.221Z,97299.41
2022-12-26T04:07:56.702Z,97309.06
2022-12-26T04:10:52.655Z,97307.53
2022-12-26T04:13:47.672Z,97311.81
2022-12-26T04:16:42.111Z,97318.66
2022-12-26T04:19:51.151Z,97313.53
2022-12-26T04:23:07.552Z,97321.50
2022-12-26T04:25:59.765Z,97312.97
2022-12-26T04:28:45.217Z,97311.38
2022-12-26T04:31:38.956Z,97313.16
2022-12-26T04:34:32.537Z,97305.25
2022-12-26T04:37:22.020Z,97302.63
2022-12-26T04:40:09.941Z,97305.13
2022-12-26T04:42:56.487Z,97310.34
2022-12-26T04:45:23.620Z,97306.13
2022-12-26T04:48:09.623Z,97309.47
2022-12-26T04:50:36.256Z,97312.13
2022-12-26T04:53:02.813Z,97316.41
2022-12-26T04:55:32.847Z,97327.81
2022-12-26T04:57:59.924Z,97333.78
2022-12-26T05:00:28.449Z,97343.34
2022-12-26T05:03:19.396Z,97350.41
2022-12-26T05:06:10.624Z,97349.53
2022-12-26T05:09:15.917Z,97349.53
2022-12-26T05:11:47.173Z,97346.72
2022-12-26T05:14:18.368Z,97353.63
2022-12-26T05:17:03.296Z,97353.53
2022-12-26T05:19:52.445Z,97351.78
2022-12-26T05:22:47.154Z,97351.81
2022-12-26T05:25:38.515Z,97352.66
2022-12-26T05:28:24.119Z,97344.13
2022-12-26T05:30:53.557Z,97347.47
2022-12-26T05:33:45.651Z,97343.25
2022-12-26T05:36:45.364Z,97342.53
2022-12-26T05:39:16.090Z,97339.91
2022-12-26T05:41:42.806Z,97343.25
2022-12-26T05:44:16.191Z,97340.75
2022-12-26T05:46:42.880Z,97342.53
2022-12-26T05:49:09.933Z,97346.91
2022-12-26T05:51:36.497Z,97343.44
2022-12-26T05:54:04.641Z,97346.00
2022-12-26T05:56:31.396Z,97340.81
2022-12-26T05:59:00.832Z,97343.44
2022-12-26T06:01:28.743Z,97349.47
2022-12-26T06:03:57.760Z,97356.38
2022-12-26T06:06:26.345Z,97351.41
2022-12-26T06:08:55.535Z,97351.28
2022-12-26T06:11:23.008Z,97359.06
2022-12-26T06:13:49.526Z,97346.84
2022-12-26T06:16:17.647Z,97363.38
2022-12-26T06:18:44.825Z,97359.94
2022-12-26T06:21:26.339Z,97362.53
2022-12-26T06:23:52.857Z,97364.41
2022-12-26T06:26:22.481Z,97357.47
2022-12-26T06:28:49.011Z,97357.59
2022-12-26T06:31:20.819Z,97357.66
2022-12-26T06:33:49.652Z,97368.88
2022-12-26T06:36:24.081Z,97367.91
2022-12-26T06:38:51.802Z,97372.84
2022-12-26T06:41:20.635Z,97362.44
2022-12-26T06:43:47.512Z,97367.53
2022-12-26T06:46:16.655Z,97356.28
2022-12-26T06:48:43.485Z,97366.91
2022-12-26T06:51:23.746Z,97365.22
2022-12-26T06:53:54.432Z,97368.19
2022-12-26T06:56:27.287Z,97372.06
2022-12-26T06:59:02.286Z,97375.66
2022-12-26T07:01:31.334Z,97366.38
2022-12-26T07:03:58.943Z,97363.84
2022-12-26T07:07:14.891Z,97361.13
2022-12-26T07:09:41.431Z,97371.50
2022-12-26T07:12:07.897Z,97364.56
2022-12-26T07:14:40.708Z,97371.28
2022-12-26T07:17:09.861Z,97368.59
2022-12-26T07:19:37.034Z,97368.50
2022-12-26T07:22:03.863Z,97372.78
2022-12-26T07:24:30.638Z,97371.66
2022-12-26T07:26:57.331Z,97369.03
2022-12-26T07:29:23.946Z,97378.22
2022-12-26T07:31:50.572Z,97371.03
2022-12-26T07:34:24.088Z,97370.69
2022-12-26T07:36:55.422Z,97365.31
2022-12-26T07:39:26.227Z,97370.09
2022-12-26T07:41:58.804Z,97368.34
2022-12-26T07:44:26.843Z,97375.88
2022-12-26T07:46:53.416Z,97371.22
2022-12-26T07:49:20.020Z,97374.25
2022-12-26T07:51:46.611Z,97379.72
2022-12-26T07:54:13.360Z,97382.53
2022-12-26T07:56:40.921Z,97384.47
2022-12-26T07:59:12.015Z,97375.41
2022-12-26T08:01:38.604Z,97384.00
2022-12-26T08:04:05.250Z,97391.31
2022-12-26T08:06:31.815Z,97381.31
2022-12-26T08:09:24.578Z,97369.78
2022-12-26T08:11:51.068Z,97367.59
2022-12-26T08:14:17.573Z,97374.94
2022-12-26T08:16:49.733Z,97378.41
2022-12-26T08:19:19.645Z,97369.41
2022-12-26T08:21:46.257Z,97371.25
2022-12-26T08:24:13.336Z,97364.91
2022-12-26T08:26:40.204Z,97374.94
2022-12-26T08:29:06.759Z,97379.25
2022-12-26T08:31:33.547Z,97374.03
2022-12-26T08:34:00.108Z,97379.78
2022-12-26T08:36:27.445Z,97379.78
2022-12-26T08:38:54.079Z,97380.34
2022-12-26T08:41:21.096Z,97382.19
2022-12-26T08:44:25.631Z,97375.63
2022-12-26T08:46:39.109Z,97376.47
2022-12-26T08:49:05.757Z,97374.75
2022-12-26T08:51:32.276Z,97370.03
2022-12-26T08:53:58.773Z,97366.81
2022-12-26T08:56:27.069Z,97368.13
2022-12-26T08:58:53.851Z,97360.38
2022-12-26T09:01:26.296Z,97362.91
2022-12-26T09:03:57.923Z,97357.13
2022-12-26T09:06:26.595Z,97364.75
2022-12-26T09:08:53.873Z,97356.91
2022-12-26T09:11:27.882Z,97355.22
2022-12-26T09:13:56.399Z,97354.66
2022-12-26T09:16:32.729Z,97343.47
2022-12-26T09:19:04.689Z,97345.31
2022-12-26T09:21:32.181Z,97349.88
2022-12-26T09:24:03.539Z,97345.88
2022-12-26T09:26:30.967Z,97351.53
2022-12-26T09:28:58.323Z,97348.50
2022-12-26T09:35:11.935Z,97343.31
2022-12-26T09:38:03.756Z,97332.22
2022-12-26T09:40:37.048Z,97329.03
2022-12-26T09:44:07.279Z,97324.66
2022-12-26T09:47:12.310Z,97322.53
2022-12-26T09:49:57.717Z,97329.53
2022-12-26T09:53:03.207Z,97320.38
2022-12-26T09:55:51.302Z,97316.19
2022-12-26T09:58:44.550Z,97319.22
2022-12-26T10:04:32.552Z,97317.25
2022-12-26T10:07:09.204Z,97319.88
2022-12-26T10:09:35.629Z,97305.09
2022-12-26T10:12:05.068Z,97304.56
2022-12-26T10:14:40.796Z,97310.81
2022-12-26T10:17:30.878Z,97303.06
2022-12-26T10:20:00.071Z,97299.06
2022-12-26T10:22:54.825Z,97297.56
2022-12-26T10:25:33.588Z,97299.41
2022-12-26T10:29:08.302Z,97295.72
2022-12-26T10:31:41.235Z,97299.03
2022-12-26T10:34:17.103Z,97281.84
2022-12-26T10:37:10.786Z,97285.03
2022-12-26T10:39:49.909Z,97273.53
2022-12-26T10:42:42.396Z,97284.03
2022-12-26T10:45:20.214Z,97285.69
2022-12-26T10:47:48.105Z,97286.66
2022-12-26T10:50:15.738Z,97278.94
2022-12-26T10:52:42.181Z,97285.47
2022-12-26T10:55:29.060Z,97279.94
2022-12-26T10:58:10.254Z,97271.16
2022-12-26T11:00:36.700Z,97270.13
2022-12-26T11:06:30.921Z,97264.09
2022-12-26T11:12:38.551Z,97248.13
2022-12-26T11:15:41.916Z,97254.25
2022-12-26T11:18:16.671Z,97249.59
2022-12-26T11:20:43.697Z,97248.34
2022-12-26T11:23:22.274Z,97248.28
2022-12-26T11:25:51.835Z,97253.78
2022-12-26T11:35:26.609Z,97242.88
2022-12-26T11:37:57.384Z,97237.81
2022-12-26T11:41:06.953Z,97241.00
2022-12-26T11:43:33.916Z,97237.09
2022-12-26T11:46:00.443Z,97236.69
2022-12-26T11:48:28.099Z,97235.31
2022-12-26T11:50:54.676Z,97227.72
2022-12-26T11:53:22.761Z,97232.53
2022-12-26T11:59:21.294Z,97226.16
2022-12-26T12:05:27.205Z,97229.88
2022-12-26T12:08:12.406Z,97229.91
2022-12-26T12:10:50.990Z,97230.53
2022-12-26T12:13:30.644Z,97234.78
2022-12-26T12:15:59.811Z,97224.75
2022-12-26T12:22:07.534Z,97225.03
2022-12-26T12:25:01.702Z,97224.63
2022-12-26T12:27:55.013Z,97222.34
2022-12-26T12:30:32.487Z,97230.03
2022-12-26T12:33:36.474Z,97239.28
2022-12-26T12:36:54.984Z,97233.16
2022-12-26T12:39:28.393Z,97237.84
2022-12-26T12:42:10.412Z,97241.41
2022-12-26T12:45:01.288Z,97247.78
2022-12-26T12:47:49.375Z,97254.03
2022-12-26T12:50:25.035Z,97256.78
2022-12-26T12:52:57.594Z,97255.28
2022-12-26T12:55:38.733Z,97275.47
2022-12-26T12:58:31.395Z,97271.19
2022-12-26T13:01:01.546Z,97296.34
2022-12-26T13:03:34.227Z,97308.28
2022-12-26T13:06:11.932Z,97303.91
2022-12-26T13:08:41.512Z,97304.47
2022-12-26T13:11:20.392Z,97330.75
2022-12-26T13:13:53.920Z,97346.19
2022-12-26T13:16:23.732Z,97353.91
2022-12-26T13:18:52.447Z,97364.09
2022-12-26T13:21:20.108Z,97369.25
2022-12-26T13:24:07.161Z,97370.69
2022-12-26T13:26:48.682Z,97378.00
2022-12-26T13:29:38.750Z,97378.09
2022-12-26T13:32:13.888Z,97372.16
2022-12-26T13:34:42.930Z,97381.34
2022-12-26T13:37:29.514Z,97387.03
2022-12-26T13:39:55.964Z,97389.66
2022-12-26T13:42:47.205Z,97396.09
2022-12-26T13:45:32.292Z,97399.84
2022-12-26T13:47:58.798Z,97410.09
2022-12-26T13:50:47.174Z,97412.97
2022-12-26T13:53:25.558Z,97407.88
2022-12-26T13:56:26.228Z,97414.56
2022-12-26T13:58:55.726Z,97415.47
2022-12-26T14:01:41.092Z,97418.16
2022-12-26T14:04:07.630Z,97419.13
2022-12-26T14:06:43.159Z,97424.63
2022-12-26T14:09:09.547Z,97427.59
2022-12-26T14:12:02.824Z,97428.72
2022-12-26T14:15:10.472Z,97438.22
2022-12-26T14:17:36.944Z,97433.44
2022-12-26T14:20:03.661Z,97449.16
2022-12-26T14:23:06.896Z,97457.03
2022-12-26T14:25:43.643Z,97454.47
2022-12-26T14:28:32.211Z,97453.88
2022-12-26T14:31:18.160Z,97457.28
2022-12-26T14:34:05.517Z,97449.41
2022-12-26T14:36:45.079Z,97451.19
2022-12-26T14:39:11.481Z,97439.22
2022-12-26T14:42:24.084Z,97449.91
2022-12-26T14:44:58.040Z,97449.41
2022-12-26T14:47:43.699Z,97463.81
2022-12-26T14:50:28.873Z,97455.38
2022-12-26T14:52:55.380Z,97446.63
2022-12-26T14:56:01.001Z,97443.59
2022-12-26T14:58:47.236Z,97451.72
2022-12-26T15:01:13.815Z,97450.06
2022-12-26T15:03:40.333Z,97448.44
2022-12-26T15:06:29.676Z,97458.94
2022-12-26T15:09:21.295Z,97459.00
2022-12-26T15:11:50.654Z,97462.66
2022-12-26T15:14:35.379Z,97474.03
2022-12-26T15:17:04.499Z,97477.56
2022-12-26T15:19:49.320Z,97482.00
2022-12-26T15:22:34.480Z,97486.28
2022-12-26T15:25:19.236Z,97490.97
2022-12-26T15:27:59.387Z,97500.88
2022-12-26T15:30:55.431Z,97499.09
2022-12-26T15:33:44.610Z,97497.91
2022-12-26T15:36:21.045Z,97493.66
2022-12-26T15:39:10.900Z,97489.59
2022-12-26T15:41:48.597Z,97490.59
2022-12-26T15:44:21.561Z,97480.19
2022-12-26T15:47:08.373Z,97502.13
2022-12-26T15:53:01.175Z,97498.28
2022-12-26T15:55:32.532Z,97509.78
2022-12-26T15:57:59.001Z,97504.63
2022-12-26T16:00:33.155Z,97496.75
2022-12-26T16:03:11.940Z,97497.78
2022-12-26T16:05:44.594Z,97491.78
2022-12-26T16:08:17.085Z,97486.59
2022-12-26T16:10:43.499Z,97472.22
2022-12-26T16:13:12.835Z,97459.44
2022-12-26T16:15:46.549Z,97447.69
2022-12-26T16:18:14.240Z,97435.41
2022-12-26T16:20:59.069Z,97433.44
2022-12-26T16:23:28.381Z,97427.28
2022-12-26T16:25:56.450Z,97419.31
2022-12-26T16:28:24.855Z,97429.81
2022-12-26T16:30:51.374Z,97429.03
2022-12-26T16:33:17.942Z,97424.38
2022-12-26T16:35:44.542Z,97422.72
2022-12-26T16:38:20.260Z,97427.38
2022-12-26T16:40:50.407Z,97430.66
2022-12-26T16:43:16.986Z,97446.75
2022-12-26T16:45:44.406Z,97452.00
2022-12-26T16:48:16.552Z,97450.66
2022-12-26T16:50:56.563Z,97465.66
2022-12-26T16:53:43.718Z,97468.38
2022-12-26T16:56:28.886Z,97457.28
2022-12-26T16:59:04.727Z,97454.88
2022-12-26T17:01:32.425Z,97453.03
2022-12-26T17:04:17.371Z,97452.03
2022-12-26T17:06:54.935Z,97450.56
2022-12-26T17:09:23.139Z,97429.06
2022-12-26T17:11:52.799Z,97419.66
2022-12-26T17:14:25.036Z,97428.41
2022-12-26T17:16:58.588Z,97418.66
2022-12-26T17:19:27.856Z,97419.84
2022-12-26T17:22:13.122Z,97415.34
2022-12-26T17:24:39.730Z,97404.94
2022-12-26T17:27:19.779Z,97398.06
2022-12-26T17:29:46.997Z,97381.59
2022-12-26T17:32:21.503Z,97378.44
2022-12-26T17:34:48.308Z,97389.97
2022-12-26T17:37:19.888Z,97393.41
2022-12-26T17:39:50.786Z,97381.50
2022-12-26T17:42:17.454Z,97400.88
2022-12-26T17:44:45.132Z,97419.47
2022-12-26T17:47:23.140Z,97415.91
2022-12-26T17:49:50.741Z,97419.47
2022-12-26T17:52:18.836Z,97426.41
2022-12-26T17:54:45.580Z,97429.63
2022-12-26T17:57:22.478Z,97424.22
2022-12-26T17:59:49.178Z,97434.56
2022-12-26T18:02:15.921Z,97423.09
2022-12-26T18:04:42.457Z,97403.06
2022-12-26T18:07:14.900Z,97417.94
2022-12-26T18:09:41.399Z,97420.84
2022-12-26T18:12:10.082Z,97407.94
2022-12-26T18:14:36.466Z,97408.97
2022-12-26T18:17:02.940Z,97426.22
2022-12-26T18:19:29.388Z,97434.44
2022-12-26T18:21:55.887Z,97444.06
2022-12-26T18:24:22.298Z,97421.25
2022-12-26T18:26:49.794Z,97450.31
2022-12-26T18:29:16.250Z,97463.44
2022-12-26T18:31:42.663Z,97472.56
2022-12-26T18:34:09.054Z,97473.88
2022-12-26T18:36:36.864Z,97461.91
2022-12-26T18:39:03.605Z,97467.31
2022-12-26T18:41:30.315Z,97465.69
2022-12-26T18:43:58.156Z,97451.59
2022-12-26T18:46:25.947Z,97451.31
2022-12-26T18:48:57.425Z,97434.94
2022-12-26T18:51:24.314Z,97432.53
2022-12-26T18:53:51.118Z,97428.16
2022-12-26T18:56:18.912Z,97420.44
2022-12-26T18:58:45.991Z,97437.47
2022-12-26T19:01:13.711Z,97454.22
2022-12-26T19:03:40.888Z,97456.13
2022-12-26T19:06:09.003Z,97463.25
2022-12-26T19:08:35.392Z,97463.25
2022-12-26T19:11:01.960Z,97452.75
2022-12-26T19:13:28.402Z,97439.78
2022-12-26T19:15:54.834Z,97437.19
2022-12-26T19:18:21.281Z,97440.19
2022-12-26T19:20:48.120Z,97423.75
2022-12-26T19:23:14.627Z,97427.13
2022-12-26T19:25:41.145Z,97427.56
2022-12-26T19:28:07.557Z,97444.72
2022-12-26T19:30:38.836Z,97459.94
2022-12-26T19:33:05.653Z,97460.06
2022-12-26T19:35:32.133Z,97449.53
2022-12-26T19:37:58.709Z,97439.19
2022-12-26T19:40:25.494Z,97433.84
2022-12-26T19:42:51.989Z,97439.56
2022-12-26T19:45:18.506Z,97448.44
2022-12-26T19:47:44.985Z,97453.00
2022-12-26T19:50:12.038Z,97466.00
2022-12-26T19:52:39.492Z,97438.25
2022-12-26T19:55:06.596Z,97441.97
2022-12-26T19:57:33.072Z,97430.88
2022-12-26T19:59:59.514Z,97428.78
2022-12-26T20:02:26.006Z,97437.53
2022-12-26T20:04:52.550Z,97439.03
2022-12-26T20:07:18.984Z,97446.38
2022-12-26T20:09:45.413Z,97446.44
2022-12-26T20:12:11.825Z,97423.72
2022-12-26T20:14:38.276Z,97420.75
2022-12-26T20:17:06.612Z,97443.75
2022-12-26T20:19:34.391Z,97442.06
2022-12-26T20:22:00.875Z,97445.03
2022-12-26T20:24:27.393Z,97450.19
2022-12-26T20:26:54.059Z,97437.25
2022-12-26T20:29:20.644Z,97443.41
2022-12-26T20:31:47.137Z,97427.50
2022-12-26T20:34:13.711Z,97430.34
2022-12-26T20:36:41.439Z,97441.00
2022-12-26T20:39:10.710Z,97442.97
2022-12-26T20:41:37.218Z,97435.28
2022-12-26T20:44:03.779Z,97444.59
2022-12-26T20:46:34.767Z,97442.47
2022-12-26T20:49:04.899Z,97443.34
2022-12-26T20:51:37.364Z,97460.31
2022-12-26T20:54:05.250Z,97462.13
2022-12-26T20:56:31.648Z,97455.25
2022-12-26T20:58:59.509Z,97450.59
2022-12-26T21:01:26.809Z,97446.44
2022-12-26T21:03:54.251Z,97446.34
2022-12-26T21:06:25.209Z,97440.94
2022-12-26T21:08:52.385Z,97443.84
2022-12-26T21:11:20.589Z,97438.34
2022-12-26T21:13:47.875Z,97447.59
2022-12-26T21:16:43.682Z,97436.41
2022-12-26T21:19:14.961Z,97438.00
2022-12-26T21:21:44.175Z,97437.22
2022-12-26T21:24:12.577Z,97448.09
2022-12-26T21:26:39.764Z,97444.59
2022-12-26T21:29:07.657Z,97449.03
2022-12-26T21:31:34.969Z,97441.84
2022-12-26T21:34:02.312Z,97450.94
2022-12-26T21:36:29.018Z,97442.16
2022-12-26T21:38:56.098Z,97444.19
2022-12-26T21:41:22.542Z,97458.19
2022-12-26T21:43:49.197Z,97471.78
2022-12-26T21:46:17.130Z,97482.94
2022-12-26T21:48:47.192Z,97508.88
2022-12-26T21:51:15.462Z,97508.28
2022-12-26T21:53:43.501Z,97543.69
2022-12-26T21:56:10.784Z,97528.22
2022-12-26T21:58:56.127Z,97515.88
2022-12-26T22:01:23.705Z,97515.88
2022-12-26T22:04:09.020Z,97509.28
2022-12-26T22:06:35.869Z,97516.97
2022-12-26T22:09:02.529Z,97530.41
2022-12-26T22:11:47.611Z,97536.94
2022-12-26T22:14:14.027Z,97559.38
2022-12-26T22:16:40.544Z,97572.66
2022-12-26T22:19:07.137Z,97584.03
2022-12-26T22:21:33.603Z,97591.72
2022-12-26T22:24:01.431Z,97592.72
2022-12-26T22:26:28.653Z,97597.44
2022-12-26T22:28:56.794Z,97604.84
2022-12-26T22:31:24.680Z,97608.50
2022-12-26T22:33:57.646Z,97621.03
2022-12-26T22:36:24.387Z,97630.25
2022-12-26T22:38:50.849Z,97629.00
2022-12-26T22:41:17.252Z,97632.63
2022-12-26T22:43:43.638Z,97631.16
2022-12-26T22:46:10.575Z,97642.75
2022-12-26T22:48:37.472Z,97642.91
2022-12-26T22:51:08.528Z,97643.91
2022-12-26T22:53:35.081Z,97651.00
2022-12-26T22:56:02.746Z,97650.06
2022-12-26T22:58:29.773Z,97656.09
2022-12-26T23:01:02.150Z,97652.00
2022-12-26T23:03:29.478Z,97661.59
2022-12-26T23:05:56.044Z,97661.53
2022-12-26T23:08:23.745Z,97660.84
2022-12-26T23:10:51.872Z,97662.59
2022-12-26T23:13:18.758Z,97653.00
2022-12-26T23:15:53.595Z,97647.75
2022-12-26T23:18:47.832Z,97650.22
2022-12-26T23:21:39.808Z,97647.75
2022-12-26T23:24:07.663Z,97659.00
2022-12-26T23:26:34.154Z,97660.84
2022-12-26T23:29:19.085Z,97660.78
2022-12-26T23:31:45.551Z,97668.75
2022-12-26T23:34:12.081Z,97662.47
2022-12-26T23:36:38.453Z,97662.47
2022-12-26T23:39:04.869Z,97663.47
2022-12-26T23:41:31.304Z,97667.00
2022-12-26T23:43:57.703Z,97665.38
2022-12-26T23:46:24.275Z,97669.81
2022-12-26T23:48:50.678Z,97682.22
2022-12-26T23:51:17.344Z,97679.72
2022-12-26T23:53:43.916Z,97676.34
2022-12-26T23:56:10.456Z,97684.06
2022-12-26T23:58:38.394Z,97686.09
